sensor_id;sensor_type;location;lat;lon;timestamp;pressure;altitude;pressure_sealevel;temperature;humidity
9717;BME280;4897;43.570;27.832;2023-07-13T00:00:48;99095.13;;;22.20;100.00
9717;BME280;4897;43.570;27.832;2023-07-13T00:03:15;99085.88;;;22.08;100.00
9717;BME280;4897;43.570;27.832;2023-07-13T00:05:42;99087.97;;;22.06;100.00
9717;BME280;4897;43.570;27.832;2023-07-13T00:08:09;99018.06;;;21.66;100.00
9717;BME280;4897;43.570;27.832;2023-07-13T00:10:41;99075.56;;;21.97;100.00
9717;BME280;4897;43.570;27.832;2023-07-13T00:13:09;99080.03;;;22.11;100.00
9717;BME280;4897;43.570;27.832;2023-07-13T00:15:36;99071.00;;;22.04;100.00
9717;BME280;4897;43.570;27.832;2023-07-13T00:18:03;99066.56;;;21.90;100.00
9717;BME280;4897;43.570;27.832;2023-07-13T00:20:30;99040.59;;;21.87;100.00
9717;BME280;4897;43.570;27.832;2023-07-13T00:22:57;99056.94;;;21.94;100.00
9717;BME280;4897;43.570;27.832;2023-07-13T00:25:24;99048.97;;;21.86;100.00
9717;BME280;4897;43.570;27.832;2023-07-13T00:27:54;99043.31;;;21.87;100.00
9717;BME280;4897;43.570;27.832;2023-07-13T00:30:23;99059.06;;;21.98;100.00
9717;BME280;4897;43.570;27.832;2023-07-13T00:32:49;99058.22;;;21.98;100.00
9717;BME280;4897;43.570;27.832;2023-07-13T00:35:17;98952.03;;;21.37;100.00
9717;BME280;4897;43.570;27.832;2023-07-13T00:37:44;99047.53;;;21.96;100.00
9717;BME280;4897;43.570;27.832;2023-07-13T00:40:13;99051.91;;;21.97;100.00
9717;BME280;4897;43.570;27.832;2023-07-13T00:42:40;99044.59;;;21.98;100.00
9717;BME280;4897;43.570;27.832;2023-07-13T00:48:21;99042.72;;;21.98;100.00
9717;BME280;4897;43.570;27.832;2023-07-13T00:50:53;99029.28;;;21.97;100.00
9717;BME280;4897;43.570;27.832;2023-07-13T00:53:22;98945.34;;;21.46;100.00
9717;BME280;4897;43.570;27.832;2023-07-13T00:55:55;99023.03;;;21.96;100.00
9717;BME280;4897;43.570;27.832;2023-07-13T00:58:24;99012.94;;;21.97;100.00
9717;BME280;4897;43.570;27.832;2023-07-13T01:00:52;99031.41;;;22.08;100.00
9717;BME280;4897;43.570;27.832;2023-07-13T01:03:20;98971.59;;;21.74;100.00
9717;BME280;4897;43.570;27.832;2023-07-13T01:05:48;99023.03;;;22.16;100.00
9717;BME280;4897;43.570;27.832;2023-07-13T01:08:17;99009.22;;;22.17;100.00
9717;BME280;4897;43.570;27.832;2023-07-13T01:10:51;99016.75;;;22.22;100.00
9717;BME280;4897;43.570;27.832;2023-07-13T01:13:18;99010.91;;;22.25;100.00
9717;BME280;4897;43.570;27.832;2023-07-13T01:15:48;99017.19;;;22.32;100.00
9717;BME280;4897;43.570;27.832;2023-07-13T01:18:22;99015.53;;;22.31;100.00
9717;BME280;4897;43.570;27.832;2023-07-13T01:20:55;99006.94;;;22.34;100.00
9717;BME280;4897;43.570;27.832;2023-07-13T01:23:23;98993.31;;;22.27;100.00
9717;BME280;4897;43.570;27.832;2023-07-13T01:25:51;99005.88;;;22.35;100.00
9717;BME280;4897;43.570;27.832;2023-07-13T01:28:19;99004.63;;;22.31;100.00
9717;BME280;4897;43.570;27.832;2023-07-13T01:30:46;99011.75;;;22.32;100.00
9717;BME280;4897;43.570;27.832;2023-07-13T01:33:15;99007.16;;;22.39;100.00
9717;BME280;4897;43.570;27.832;2023-07-13T01:35:43;98987.44;;;22.31;100.00
9717;BME280;4897;43.570;27.832;2023-07-13T01:38:13;99014.69;;;22.44;100.00
9717;BME280;4897;43.570;27.832;2023-07-13T01:40:40;98995.00;;;22.35;100.00
9717;BME280;4897;43.570;27.832;2023-07-13T01:43:07;98989.53;;;22.28;100.00
9717;BME280;4897;43.570;27.832;2023-07-13T01:45:34;99005.91;;;22.42;100.00
9717;BME280;4897;43.570;27.832;2023-07-13T01:48:01;98964.38;;;22.26;100.00
9717;BME280;4897;43.570;27.832;2023-07-13T01:50:27;98987.03;;;22.40;100.00
9717;BME280;4897;43.570;27.832;2023-07-13T01:52:54;98962.31;;;22.09;100.00
9717;BME280;4897;43.570;27.832;2023-07-13T01:55:23;98999.19;;;22.31;100.00
9717;BME280;4897;43.570;27.832;2023-07-13T01:57:50;98991.63;;;22.26;100.00
9717;BME280;4897;43.570;27.832;2023-07-13T02:00:17;98994.56;;;22.25;100.00
9717;BME280;4897;43.570;27.832;2023-07-13T02:02:44;98994.97;;;22.15;100.00
9717;BME280;4897;43.570;27.832;2023-07-13T02:05:11;98985.97;;;22.15;100.00
9717;BME280;4897;43.570;27.832;2023-07-13T02:07:38;98991.00;;;22.18;100.00
9717;BME280;4897;43.570;27.832;2023-07-13T02:10:06;98984.09;;;22.09;100.00
9717;BME280;4897;43.570;27.832;2023-07-13T02:12:35;98986.38;;;22.18;100.00
9717;BME280;4897;43.570;27.832;2023-07-13T02:15:03;98984.91;;;22.16;100.00
9717;BME280;4897;43.570;27.832;2023-07-13T02:17:30;98996.03;;;22.21;100.00
9717;BME280;4897;43.570;27.832;2023-07-13T02:19:57;98985.13;;;22.14;100.00
9717;BME280;4897;43.570;27.832;2023-07-13T02:22:24;99001.25;;;22.16;100.00
9717;BME280;4897;43.570;27.832;2023-07-13T02:24:54;98969.81;;;21.94;100.00
9717;BME280;4897;43.570;27.832;2023-07-13T02:27:21;99002.72;;;22.18;100.00
9717;BME280;4897;43.570;27.832;2023-07-13T02:29:49;98991.81;;;22.12;100.00
9717;BME280;4897;43.570;27.832;2023-07-13T02:32:17;98995.41;;;22.19;100.00
9717;BME280;4897;43.570;27.832;2023-07-13T02:34:44;98997.28;;;22.18;100.00
9717;BME280;4897;43.570;27.832;2023-07-13T02:37:11;98988.06;;;22.13;100.00
9717;BME280;4897;43.570;27.832;2023-07-13T02:39:38;99002.72;;;22.12;100.00
9717;BME280;4897;43.570;27.832;2023-07-13T02:42:07;98994.97;;;22.09;100.00
9717;BME280;4897;43.570;27.832;2023-07-13T02:44:34;98986.59;;;22.04;100.00
9717;BME280;4897;43.570;27.832;2023-07-13T02:47:03;98983.63;;;22.05;100.00
9717;BME280;4897;43.570;27.832;2023-07-13T02:49:30;98998.34;;;22.11;100.00
9717;BME280;4897;43.570;27.832;2023-07-13T02:52:03;98993.09;;;22.16;100.00
9717;BME280;4897;43.570;27.832;2023-07-13T02:54:30;98979.03;;;21.99;100.00
9717;BME280;4897;43.570;27.832;2023-07-13T02:56:57;98994.53;;;22.05;100.00
9717;BME280;4897;43.570;27.832;2023-07-13T02:59:24;99000.84;;;22.19;100.00
9717;BME280;4897;43.570;27.832;2023-07-13T03:01:52;99002.50;;;22.13;100.00
9717;BME280;4897;43.570;27.832;2023-07-13T03:04:20;99000.00;;;22.12;100.00
9717;BME280;4897;43.570;27.832;2023-07-13T03:06:46;98997.69;;;22.15;100.00
9717;BME280;4897;43.570;27.832;2023-07-13T03:09:13;99001.25;;;22.16;100.00
9717;BME280;4897;43.570;27.832;2023-07-13T03:11:40;98999.59;;;22.15;100.00
9717;BME280;4897;43.570;27.832;2023-07-13T03:14:07;98987.00;;;22.14;100.00
9717;BME280;4897;43.570;27.832;2023-07-13T03:16:34;99002.50;;;22.20;100.00
9717;BME280;4897;43.570;27.832;2023-07-13T03:19:01;99000.66;;;22.27;100.00
9717;BME280;4897;43.570;27.832;2023-07-13T03:21:30;98979.91;;;22.19;100.00
9717;BME280;4897;43.570;27.832;2023-07-13T03:23:57;98973.19;;;22.15;100.00
9717;BME280;4897;43.570;27.832;2023-07-13T03:26:24;99003.81;;;22.44;100.00
9717;BME280;4897;43.570;27.832;2023-07-13T03:28:50;99005.25;;;22.33;100.00
9717;BME280;4897;43.570;27.832;2023-07-13T03:31:18;98980.94;;;22.25;100.00
9717;BME280;4897;43.570;27.832;2023-07-13T03:33:46;99016.81;;;22.48;100.00
9717;BME280;4897;43.570;27.832;2023-07-13T03:36:15;98997.94;;;22.40;100.00
9717;BME280;4897;43.570;27.832;2023-07-13T03:38:46;98999.59;;;22.54;100.00
9717;BME280;4897;43.570;27.832;2023-07-13T03:41:14;99009.69;;;22.60;100.00
9717;BME280;4897;43.570;27.832;2023-07-13T03:43:43;99017.03;;;22.66;100.00
9717;BME280;4897;43.570;27.832;2023-07-13T03:46:10;99009.69;;;22.73;100.00
9717;BME280;4897;43.570;27.832;2023-07-13T03:48:37;99019.75;;;22.86;100.00
9717;BME280;4897;43.570;27.832;2023-07-13T03:51:05;98980.97;;;22.71;100.00
9717;BME280;4897;43.570;27.832;2023-07-13T03:53:32;99005.91;;;22.87;100.00
9717;BME280;4897;43.570;27.832;2023-07-13T03:56:00;99010.50;;;23.00;100.00
9717;BME280;4897;43.570;27.832;2023-07-13T03:58:33;99006.50;;;23.02;100.00
9717;BME280;4897;43.570;27.832;2023-07-13T04:01:01;99006.69;;;23.01;100.00
9717;BME280;4897;43.570;27.832;2023-07-13T04:03:29;99016.75;;;23.14;100.00
9717;BME280;4897;43.570;27.832;2023-07-13T04:05:58;99000.19;;;23.09;100.00
9717;BME280;4897;43.570;27.832;2023-07-13T04:08:27;99015.91;;;23.20;100.00
9717;BME280;4897;43.570;27.832;2023-07-13T04:10:54;99016.50;;;23.35;100.00
9717;BME280;4897;43.570;27.832;2023-07-13T04:13:22;99012.06;;;23.47;100.00
9717;BME280;4897;43.570;27.832;2023-07-13T04:15:50;99022.94;;;23.60;100.00
9717;BME280;4897;43.570;27.832;2023-07-13T04:18:17;98983.47;;;23.56;100.00
9717;BME280;4897;43.570;27.832;2023-07-13T04:20:47;99008.94;;;23.88;100.00
9717;BME280;4897;43.570;27.832;2023-07-13T04:23:18;99009.28;;;24.04;100.00
9717;BME280;4897;43.570;27.832;2023-07-13T04:25:48;99011.38;;;24.09;100.00
9717;BME280;4897;43.570;27.832;2023-07-13T04:28:18;99006.63;;;24.22;100.00
9717;BME280;4897;43.570;27.832;2023-07-13T04:30:46;98997.41;;;24.23;100.00
9717;BME280;4897;43.570;27.832;2023-07-13T04:33:13;98982.28;;;24.21;100.00
9717;BME280;4897;43.570;27.832;2023-07-13T04:35:42;99009.47;;;24.40;100.00
9717;BME280;4897;43.570;27.832;2023-07-13T04:38:12;98998.81;;;24.57;100.00
9717;BME280;4897;43.570;27.832;2023-07-13T04:40:42;98975.31;;;24.49;100.00
9717;BME280;4897;43.570;27.832;2023-07-13T04:43:10;99015.94;;;24.71;100.00
9717;BME280;4897;43.570;27.832;2023-07-13T04:45:37;99006.84;;;24.77;100.00
9717;BME280;4897;43.570;27.832;2023-07-13T04:48:06;99014.03;;;24.96;100.00
9717;BME280;4897;43.570;27.832;2023-07-13T04:50:36;99011.47;;;25.01;100.00
9717;BME280;4897;43.570;27.832;2023-07-13T04:53:03;99006.31;;;25.11;100.00
9717;BME280;4897;43.570;27.832;2023-07-13T04:55:31;99018.47;;;25.33;100.00
9717;BME280;4897;43.570;27.832;2023-07-13T04:57:58;99023.03;;;25.39;100.00
9717;BME280;4897;43.570;27.832;2023-07-13T05:00:26;99005.56;;;25.40;100.00
9717;BME280;4897;43.570;27.832;2023-07-13T05:02:54;99022.63;;;25.60;100.00
9717;BME280;4897;43.570;27.832;2023-07-13T05:05:24;99009.53;;;25.62;100.00
9717;BME280;4897;43.570;27.832;2023-07-13T05:07:52;99026.31;;;25.84;100.00
9717;BME280;4897;43.570;27.832;2023-07-13T05:10:19;99013.25;;;25.97;100.00
9717;BME280;4897;43.570;27.832;2023-07-13T05:12:46;99018.34;;;26.12;100.00
9717;BME280;4897;43.570;27.832;2023-07-13T05:15:13;99015.78;;;26.29;100.00
9717;BME280;4897;43.570;27.832;2023-07-13T05:17:41;99023.38;;;26.56;100.00
9717;BME280;4897;43.570;27.832;2023-07-13T05:20:09;98967.53;;;26.39;100.00
9717;BME280;4897;43.570;27.832;2023-07-13T05:22:37;99017.00;;;27.20;100.00
9717;BME280;4897;43.570;27.832;2023-07-13T05:25:05;99016.34;;;27.64;100.00
9717;BME280;4897;43.570;27.832;2023-07-13T05:27:33;99003.03;;;28.41;100.00
9717;BME280;4897;43.570;27.832;2023-07-13T05:30:00;99009.00;;;28.83;100.00
9717;BME280;4897;43.570;27.832;2023-07-13T05:32:27;99018.28;;;29.32;100.00
9717;BME280;4897;43.570;27.832;2023-07-13T05:34:54;99018.06;;;29.55;100.00
9717;BME280;4897;43.570;27.832;2023-07-13T05:37:21;99005.25;;;29.65;100.00
9717;BME280;4897;43.570;27.832;2023-07-13T05:39:49;99020.81;;;29.98;100.00
9717;BME280;4897;43.570;27.832;2023-07-13T05:42:16;99020.59;;;30.26;100.00
9717;BME280;4897;43.570;27.832;2023-07-13T05:44:44;99033.53;;;30.47;100.00
9717;BME280;4897;43.570;27.832;2023-07-13T05:47:13;99028.47;;;30.71;100.00
9717;BME280;4897;43.570;27.832;2023-07-13T05:49:40;99035.50;;;30.84;100.00
9717;BME280;4897;43.570;27.832;2023-07-13T05:52:08;99033.84;;;31.14;100.00
9717;BME280;4897;43.570;27.832;2023-07-13T05:54:35;99014.91;;;31.33;100.00
9717;BME280;4897;43.570;27.832;2023-07-13T05:57:04;99035.50;;;31.57;100.00
9717;BME280;4897;43.570;27.832;2023-07-13T05:59:31;99031.19;;;31.76;100.00
9717;BME280;4897;43.570;27.832;2023-07-13T06:01:58;99034.47;;;31.68;100.00
9717;BME280;4897;43.570;27.832;2023-07-13T06:04:25;99027.97;;;31.99;100.00
9717;BME280;4897;43.570;27.832;2023-07-13T06:06:51;99028.06;;;32.29;100.00
9717;BME280;4897;43.570;27.832;2023-07-13T06:09:21;99030.25;;;32.12;100.00
9717;BME280;4897;43.570;27.832;2023-07-13T06:11:48;99014.78;;;32.37;100.00
9717;BME280;4897;43.570;27.832;2023-07-13T06:14:16;99025.91;;;32.52;100.00
9717;BME280;4897;43.570;27.832;2023-07-13T06:16:43;99006.00;;;32.85;100.00
9717;BME280;4897;43.570;27.832;2023-07-13T06:19:11;99019.78;;;33.55;100.00
9717;BME280;4897;43.570;27.832;2023-07-13T06:21:38;99025.22;;;33.86;100.00
9717;BME280;4897;43.570;27.832;2023-07-13T06:24:05;99015.00;;;33.71;100.00
9717;BME280;4897;43.570;27.832;2023-07-13T06:26:32;99020.81;;;33.74;100.00
9717;BME280;4897;43.570;27.832;2023-07-13T06:28:59;99017.38;;;33.98;100.00
9717;BME280;4897;43.570;27.832;2023-07-13T06:31:27;99020.13;;;34.13;100.00
9717;BME280;4897;43.570;27.832;2023-07-13T06:33:54;99008.88;;;34.72;100.00
9717;BME280;4897;43.570;27.832;2023-07-13T06:36:21;99019.66;;;34.78;100.00
9717;BME280;4897;43.570;27.832;2023-07-13T06:38:50;99016.88;;;34.83;100.00
9717;BME280;4897;43.570;27.832;2023-07-13T06:41:19;99002.81;;;34.26;100.00
9717;BME280;4897;43.570;27.832;2023-07-13T06:43:47;99020.34;;;33.37;100.00
9717;BME280;4897;43.570;27.832;2023-07-13T06:46:14;99012.06;;;32.92;100.00
9717;BME280;4897;43.570;27.832;2023-07-13T06:48:42;99022.59;;;32.50;100.00
9717;BME280;4897;43.570;27.832;2023-07-13T06:51:09;99015.34;;;32.39;100.00
9717;BME280;4897;43.570;27.832;2023-07-13T06:53:37;99017.53;;;32.31;100.00
9717;BME280;4897;43.570;27.832;2023-07-13T06:56:04;99006.78;;;32.35;100.00
9717;BME280;4897;43.570;27.832;2023-07-13T06:58:33;99015.34;;;32.39;100.00
9717;BME280;4897;43.570;27.832;2023-07-13T07:01:00;99020.59;;;32.40;100.00
9717;BME280;4897;43.570;27.832;2023-07-13T07:03:27;99025.31;;;32.40;100.00
9717;BME280;4897;43.570;27.832;2023-07-13T07:06:00;98967.69;;;32.01;100.00
9717;BME280;4897;43.570;27.832;2023-07-13T07:08:27;99026.38;;;32.23;100.00
9717;BME280;4897;43.570;27.832;2023-07-13T07:10:54;99016.66;;;32.06;100.00
9717;BME280;4897;43.570;27.832;2023-07-13T07:13:21;99017.72;;;31.95;100.00
9717;BME280;4897;43.570;27.832;2023-07-13T07:15:49;99028.53;;;32.01;100.00
9717;BME280;4897;43.570;27.832;2023-07-13T07:18:16;99033.50;;;32.04;100.00
9717;BME280;4897;43.570;27.832;2023-07-13T07:20:43;98998.84;;;31.77;100.00
9717;BME280;4897;43.570;27.832;2023-07-13T07:23:12;99028.50;;;31.96;100.00
9717;BME280;4897;43.570;27.832;2023-07-13T07:25:40;99025.22;;;31.99;100.00
9717;BME280;4897;43.570;27.832;2023-07-13T07:28:07;99011.41;;;32.09;100.00
9717;BME280;4897;43.570;27.832;2023-07-13T07:30:34;99019.78;;;32.35;100.00
9717;BME280;4897;43.570;27.832;2023-07-13T07:33:01;99031.13;;;32.43;100.00
9717;BME280;4897;43.570;27.832;2023-07-13T07:35:28;99019.53;;;32.46;100.00
9717;BME280;4897;43.570;27.832;2023-07-13T07:37:55;99015.38;;;32.59;100.00
9717;BME280;4897;43.570;27.832;2023-07-13T07:40:24;98994.91;;;32.60;100.00
9717;BME280;4897;43.570;27.832;2023-07-13T07:42:51;99014.59;;;32.98;100.00
9717;BME280;4897;43.570;27.832;2023-07-13T07:45:19;99022.25;;;33.57;100.00
9717;BME280;4897;43.570;27.832;2023-07-13T07:47:46;99005.16;;;34.86;100.00
9717;BME280;4897;43.570;27.832;2023-07-13T07:50:13;99005.53;;;36.64;86.85
9717;BME280;4897;43.570;27.832;2023-07-13T07:52:40;98994.34;;;37.60;75.28
9717;BME280;4897;43.570;27.832;2023-07-13T07:55:08;99000.69;;;38.65;65.55
9717;BME280;4897;43.570;27.832;2023-07-13T07:57:37;99001.19;;;39.33;60.88
9717;BME280;4897;43.570;27.832;2023-07-13T08:00:05;98994.47;;;39.34;59.56
9717;BME280;4897;43.570;27.832;2023-07-13T08:02:32;99018.16;;;39.59;56.15
9717;BME280;4897;43.570;27.832;2023-07-13T08:04:59;99032.59;;;39.22;57.48
9717;BME280;4897;43.570;27.832;2023-07-13T08:07:26;99024.03;;;39.97;54.96
9717;BME280;4897;43.570;27.832;2023-07-13T08:09:53;99021.81;;;40.16;53.01
9717;BME280;4897;43.570;27.832;2023-07-13T08:12:20;99020.53;;;40.39;52.42
9717;BME280;4897;43.570;27.832;2023-07-13T08:14:51;99016.53;;;40.23;52.62
9717;BME280;4897;43.570;27.832;2023-07-13T08:17:19;99026.34;;;40.51;51.08
9717;BME280;4897;43.570;27.832;2023-07-13T08:19:46;99021.91;;;40.84;50.79
9717;BME280;4897;43.570;27.832;2023-07-13T08:22:13;99002.34;;;41.39;47.04
9717;BME280;4897;43.570;27.832;2023-07-13T08:24:40;98999.25;;;42.28;44.65
9717;BME280;4897;43.570;27.832;2023-07-13T08:27:09;99006.06;;;42.68;43.07
9717;BME280;4897;43.570;27.832;2023-07-13T08:29:36;99002.38;;;42.06;42.84
9717;BME280;4897;43.570;27.832;2023-07-13T08:32:07;99015.09;;;42.03;41.05
9717;BME280;4897;43.570;27.832;2023-07-13T08:34:34;99007.00;;;42.02;42.82
9717;BME280;4897;43.570;27.832;2023-07-13T08:37:02;99014.69;;;42.22;41.99
9717;BME280;4897;43.570;27.832;2023-07-13T08:39:30;99007.13;;;41.85;42.82
9717;BME280;4897;43.570;27.832;2023-07-13T08:42:01;98999.66;;;42.80;40.95
9717;BME280;4897;43.570;27.832;2023-07-13T08:44:38;98995.91;;;42.55;40.15
9717;BME280;4897;43.570;27.832;2023-07-13T08:47:10;99009.25;;;41.41;42.58
9717;BME280;4897;43.570;27.832;2023-07-13T08:49:38;98967.53;;;41.61;42.84
9717;BME280;4897;43.570;27.832;2023-07-13T08:52:09;99006.66;;;42.03;42.52
9717;BME280;4897;43.570;27.832;2023-07-13T08:54:43;99002.66;;;42.34;41.89
9717;BME280;4897;43.570;27.832;2023-07-13T08:57:13;99009.91;;;42.84;40.76
9717;BME280;4897;43.570;27.832;2023-07-13T08:59:41;99009.13;;;42.75;40.56
9717;BME280;4897;43.570;27.832;2023-07-13T09:02:24;99007.91;;;43.18;39.07
9717;BME280;4897;43.570;27.832;2023-07-13T09:04:56;99013.16;;;42.54;39.35
9717;BME280;4897;43.570;27.832;2023-07-13T09:07:32;99010.09;;;42.38;40.21
9717;BME280;4897;43.570;27.832;2023-07-13T09:10:12;99000.69;;;42.34;40.18
9717;BME280;4897;43.570;27.832;2023-07-13T09:12:50;98999.16;;;41.87;40.80
9717;BME280;4897;43.570;27.832;2023-07-13T09:15:25;99014.75;;;42.75;39.39
9717;BME280;4897;43.570;27.832;2023-07-13T09:17:55;99007.97;;;42.76;39.52
9717;BME280;4897;43.570;27.832;2023-07-13T09:20:29;98997.63;;;44.03;37.22
9717;BME280;4897;43.570;27.832;2023-07-13T09:22:59;98987.94;;;44.28;36.36
9717;BME280;4897;43.570;27.832;2023-07-13T09:25:30;98981.06;;;43.89;36.01
9717;BME280;4897;43.570;27.832;2023-07-13T09:28:02;98985.28;;;43.71;36.62
9717;BME280;4897;43.570;27.832;2023-07-13T09:30:40;99006.19;;;44.18;35.20
9717;BME280;4897;43.570;27.832;2023-07-13T09:33:14;98996.28;;;44.36;33.62
9717;BME280;4897;43.570;27.832;2023-07-13T09:35:41;98999.66;;;45.53;32.94
9717;BME280;4897;43.570;27.832;2023-07-13T09:38:13;98992.75;;;44.52;33.86
9717;BME280;4897;43.570;27.832;2023-07-13T09:40:46;99003.72;;;43.93;35.10
9717;BME280;4897;43.570;27.832;2023-07-13T09:43:19;99000.53;;;44.30;35.26
9717;BME280;4897;43.570;27.832;2023-07-13T09:45:47;98975.41;;;44.93;34.42
9717;BME280;4897;43.570;27.832;2023-07-13T09:48:17;98977.34;;;45.95;32.79
9717;BME280;4897;43.570;27.832;2023-07-13T09:50:47;98973.50;;;46.03;33.21
9717;BME280;4897;43.570;27.832;2023-07-13T09:53:19;98979.09;;;45.83;32.46
9717;BME280;4897;43.570;27.832;2023-07-13T09:55:47;98979.44;;;45.35;33.14
9717;BME280;4897;43.570;27.832;2023-07-13T09:58:17;98972.94;;;45.50;33.04
9717;BME280;4897;43.570;27.832;2023-07-13T10:00:54;98981.97;;;44.69;34.02
9717;BME280;4897;43.570;27.832;2023-07-13T10:03:24;98971.16;;;44.44;34.88
9717;BME280;4897;43.570;27.832;2023-07-13T10:05:52;98966.59;;;44.67;34.19
9717;BME280;4897;43.570;27.832;2023-07-13T10:08:24;98953.72;;;45.40;33.51
9717;BME280;4897;43.570;27.832;2023-07-13T10:10:58;98948.88;;;46.38;31.98
9717;BME280;4897;43.570;27.832;2023-07-13T10:13:34;98897.78;;;45.30;32.33
9717;BME280;4897;43.570;27.832;2023-07-13T10:16:03;98945.66;;;46.05;32.06
9717;BME280;4897;43.570;27.832;2023-07-13T10:18:39;98951.19;;;45.98;32.59
9717;BME280;4897;43.570;27.832;2023-07-13T10:21:13;98943.69;;;46.40;32.14
9717;BME280;4897;43.570;27.832;2023-07-13T10:23:42;98941.41;;;47.48;31.32
9717;BME280;4897;43.570;27.832;2023-07-13T10:26:15;98945.75;;;47.91;30.73
9717;BME280;4897;43.570;27.832;2023-07-13T10:28:45;98903.28;;;47.23;30.66
9717;BME280;4897;43.570;27.832;2023-07-13T10:31:16;98943.78;;;48.21;29.62
9717;BME280;4897;43.570;27.832;2023-07-13T10:33:45;98945.75;;;48.47;29.65
9717;BME280;4897;43.570;27.832;2023-07-13T10:36:16;98933.56;;;47.90;29.81
9717;BME280;4897;43.570;27.832;2023-07-13T10:38:45;98945.00;;;47.03;30.33
9717;BME280;4897;43.570;27.832;2023-07-13T10:41:17;98921.91;;;47.01;30.33
9717;BME280;4897;43.570;27.832;2023-07-13T10:43:47;98948.72;;;46.88;29.94
9717;BME280;4897;43.570;27.832;2023-07-13T10:46:19;98941.44;;;46.87;29.99
9717;BME280;4897;43.570;27.832;2023-07-13T10:48:52;98898.06;;;46.64;29.68
9717;BME280;4897;43.570;27.832;2023-07-13T10:51:21;98944.91;;;45.26;30.88
9717;BME280;4897;43.570;27.832;2023-07-13T10:54:14;98932.88;;;45.92;30.37
9717;BME280;4897;43.570;27.832;2023-07-13T10:56:42;98938.16;;;47.04;29.49
9717;BME280;4897;43.570;27.832;2023-07-13T10:59:12;98942.03;;;46.39;28.96
9717;BME280;4897;43.570;27.832;2023-07-13T11:01:50;98947.25;;;46.21;28.64
9717;BME280;4897;43.570;27.832;2023-07-13T11:04:22;98947.09;;;46.87;27.99
9717;BME280;4897;43.570;27.832;2023-07-13T11:06:52;98946.81;;;45.38;30.34
9717;BME280;4897;43.570;27.832;2023-07-13T11:09:43;98950.94;;;44.42;30.49
9717;BME280;4897;43.570;27.832;2023-07-13T11:12:28;98947.59;;;44.52;30.97
9717;BME280;4897;43.570;27.832;2023-07-13T11:15:28;98941.75;;;45.15;30.54
9717;BME280;4897;43.570;27.832;2023-07-13T11:17:56;98946.06;;;44.82;30.61
9717;BME280;4897;43.570;27.832;2023-07-13T11:20:48;98943.50;;;45.82;29.89
9717;BME280;4897;43.570;27.832;2023-07-13T11:23:27;98930.03;;;45.45;30.43
9717;BME280;4897;43.570;27.832;2023-07-13T11:25:55;98949.03;;;45.01;31.07
9717;BME280;4897;43.570;27.832;2023-07-13T11:28:25;98905.50;;;45.02;30.91
9717;BME280;4897;43.570;27.832;2023-07-13T11:31:04;98926.78;;;43.92;31.84
9717;BME280;4897;43.570;27.832;2023-07-13T11:33:52;98931.63;;;43.55;32.08
9717;BME280;4897;43.570;27.832;2023-07-13T11:36:22;98922.91;;;43.36;32.14
9717;BME280;4897;43.570;27.832;2023-07-13T11:38:58;98935.75;;;42.27;34.09
9717;BME280;4897;43.570;27.832;2023-07-13T11:41:28;98926.09;;;42.16;33.66
9717;BME280;4897;43.570;27.832;2023-07-13T11:44:05;98916.94;;;43.26;33.31
9717;BME280;4897;43.570;27.832;2023-07-13T11:46:33;98905.44;;;43.79;32.73
9717;BME280;4897;43.570;27.832;2023-07-13T11:49:00;98910.34;;;44.06;32.38
9717;BME280;4897;43.570;27.832;2023-07-13T11:51:32;98922.09;;;44.76;30.82
9717;BME280;4897;43.570;27.832;2023-07-13T11:54:04;98918.81;;;45.17;30.53
9717;BME280;4897;43.570;27.832;2023-07-13T11:56:32;98903.53;;;45.49;30.26
9717;BME280;4897;43.570;27.832;2023-07-13T11:59:04;98898.34;;;45.86;29.21
9717;BME280;4897;43.570;27.832;2023-07-13T12:01:33;98916.72;;;45.61;29.92
9717;BME280;4897;43.570;27.832;2023-07-13T12:04:04;98911.34;;;45.40;29.88
9717;BME280;4897;43.570;27.832;2023-07-13T12:06:34;98881.44;;;46.40;29.33
9717;BME280;4897;43.570;27.832;2023-07-13T12:09:10;98897.63;;;46.81;28.93
9717;BME280;4897;43.570;27.832;2023-07-13T12:11:41;98905.47;;;46.30;28.44
9717;BME280;4897;43.570;27.832;2023-07-13T12:14:13;98879.66;;;45.31;29.37
9717;BME280;4897;43.570;27.832;2023-07-13T12:16:41;98866.19;;;44.66;30.30
9717;BME280;4897;43.570;27.832;2023-07-13T12:19:16;98871.81;;;45.40;29.71
9717;BME280;4897;43.570;27.832;2023-07-13T12:21:46;98859.03;;;45.46;30.01
9717;BME280;4897;43.570;27.832;2023-07-13T12:24:18;98850.97;;;45.29;29.80
9717;BME280;4897;43.570;27.832;2023-07-13T12:26:51;98852.94;;;45.95;29.26
9717;BME280;4897;43.570;27.832;2023-07-13T12:29:19;98847.84;;;45.84;29.06
9717;BME280;4897;43.570;27.832;2023-07-13T12:31:47;98856.84;;;46.44;28.53
9717;BME280;4897;43.570;27.832;2023-07-13T12:34:17;98819.47;;;46.16;29.33
9717;BME280;4897;43.570;27.832;2023-07-13T12:36:51;98841.50;;;46.45;29.09
9717;BME280;4897;43.570;27.832;2023-07-13T12:39:21;98831.66;;;46.20;29.34
9717;BME280;4897;43.570;27.832;2023-07-13T12:41:50;98835.00;;;44.90;30.30
9717;BME280;4897;43.570;27.832;2023-07-13T12:44:20;98839.31;;;44.28;31.42
9717;BME280;4897;43.570;27.832;2023-07-13T12:46:57;98805.31;;;44.37;30.91
9717;BME280;4897;43.570;27.832;2023-07-13T12:49:28;98820.88;;;44.90;30.76
9717;BME280;4897;43.570;27.832;2023-07-13T12:52:03;98820.69;;;45.80;30.26
9717;BME280;4897;43.570;27.832;2023-07-13T12:54:33;98816.66;;;46.16;29.15
9717;BME280;4897;43.570;27.832;2023-07-13T12:57:01;98806.63;;;46.37;29.09
9717;BME280;4897;43.570;27.832;2023-07-13T12:59:32;98804.09;;;46.55;29.44
9717;BME280;4897;43.570;27.832;2023-07-13T13:02:21;98810.59;;;46.17;29.39
9717;BME280;4897;43.570;27.832;2023-07-13T13:04:51;98819.13;;;46.78;29.38
9717;BME280;4897;43.570;27.832;2023-07-13T13:07:22;98829.75;;;46.43;29.02
9717;BME280;4897;43.570;27.832;2023-07-13T13:09:50;98800.06;;;44.79;30.79
9717;BME280;4897;43.570;27.832;2023-07-13T13:12:18;98823.44;;;44.95;30.85
9717;BME280;4897;43.570;27.832;2023-07-13T13:14:45;98816.97;;;45.10;30.69
9717;BME280;4897;43.570;27.832;2023-07-13T13:17:18;98801.44;;;45.85;30.24
9717;BME280;4897;43.570;27.832;2023-07-13T13:19:46;98790.44;;;45.46;30.34